createdAt,value
2017-09-05T00:00:21.276Z,58
2017-09-05T00:01:29.366Z,58
2017-09-05T00:02:37.455Z,58
2017-09-05T00:03:45.545Z,58
2017-09-05T00:04:53.637Z,58
2017-09-05T00:06:01.722Z,58
2017-09-05T00:07:09.811Z,58
2017-09-05T00:08:17.897Z,58
2017-09-05T00:09:25.987Z,58
2017-09-05T00:10:34.073Z,57
2017-09-05T00:11:42.163Z,58
2017-09-05T00:12:50.253Z,58
2017-09-05T00:13:58.340Z,58
2017-09-05T00:15:06.433Z,58
2017-09-05T00:16:14.531Z,58
2017-09-05T00:17:22.616Z,58
2017-09-05T00:18:30.705Z,58
2017-09-05T00:19:38.814Z,58
2017-09-05T00:20:46.913Z,58
2017-09-05T00:21:55.002Z,58
2017-09-05T00:23:03.090Z,58
2017-09-05T00:24:11.183Z,58
2017-09-05T00:25:19.266Z,58
2017-09-05T00:26:27.354Z,58
2017-09-05T00:27:35.445Z,58
2017-09-05T00:28:43.545Z,58
2017-09-05T00:29:51.630Z,58
2017-09-05T00:30:59.718Z,58
2017-09-05T00:32:07.808Z,58
2017-09-05T00:33:15.895Z,58
2017-09-05T00:34:23.985Z,58
2017-09-05T00:35:32.074Z,58
2017-09-05T00:36:40.161Z,58
2017-09-05T00:37:48.250Z,58
2017-09-05T00:38:56.338Z,58
2017-09-05T00:40:04.431Z,58
2017-09-05T00:41:12.521Z,58
2017-09-05T00:42:20.608Z,58
2017-09-05T00:43:28.698Z,58
2017-09-05T00:44:36.788Z,58
2017-09-05T00:45:44.876Z,58
2017-09-05T00:46:52.961Z,58
2017-09-05T00:48:01.050Z,58
2017-09-05T00:49:09.152Z,58
2017-09-05T00:50:17.244Z,58
2017-09-05T00:51:25.329Z,58
2017-09-05T00:52:33.414Z,58
2017-09-05T00:53:41.501Z,58
2017-09-05T00:54:49.588Z,58
2017-09-05T00:55:57.676Z,58
2017-09-05T00:57:05.776Z,58
2017-09-05T00:58:13.853Z,58
2017-09-05T00:59:21.939Z,58
2017-09-05T01:00:30.028Z,58
2017-09-05T01:01:38.118Z,58
2017-09-05T01:02:46.206Z,58
2017-09-05T01:03:54.293Z,58
2017-09-05T01:05:02.433Z,58
2017-09-05T01:06:10.522Z,58
2017-09-05T01:07:18.610Z,58
2017-09-05T01:08:26.701Z,58
2017-09-05T01:09:34.788Z,58
2017-09-05T01:10:42.874Z,58
2017-09-05T01:11:50.960Z,58
2017-09-05T01:12:59.048Z,58
2017-09-05T01:14:07.139Z,58
2017-09-05T01:15:15.225Z,58
2017-09-05T01:16:23.314Z,58
2017-09-05T01:17:31.405Z,58
2017-09-05T01:18:39.496Z,58
2017-09-05T01:19:47.581Z,58
2017-09-05T01:20:55.682Z,58
2017-09-05T01:22:03.755Z,58
2017-09-05T01:23:11.855Z,58
2017-09-05T01:24:19.933Z,58
2017-09-05T01:25:28.021Z,58
2017-09-05T01:26:36.113Z,58
2017-09-05T01:27:44.195Z,58
2017-09-05T01:28:52.285Z,58
2017-09-05T01:30:00.372Z,58
2017-09-05T01:31:08.459Z,58
2017-09-05T01:32:16.547Z,58
2017-09-05T01:33:24.635Z,58
2017-09-05T01:34:32.736Z,58
2017-09-05T01:35:40.819Z,58
2017-09-05T01:36:48.907Z,58
2017-09-05T01:37:56.999Z,58
2017-09-05T01:39:05.083Z,58
2017-09-05T01:40:13.172Z,58
2017-09-05T01:41:21.358Z,58
2017-09-05T01:42:29.349Z,58
2017-09-05T01:43:37.435Z,58
2017-09-05T01:44:45.524Z,58
2017-09-05T01:45:53.615Z,58
2017-09-05T01:47:01.700Z,58
2017-09-05T01:48:09.791Z,58
2017-09-05T01:49:17.878Z,58
2017-09-05T01:50:25.965Z,58
2017-09-05T01:51:34.060Z,58
2017-09-05T01:52:42.140Z,58
2017-09-05T01:53:50.227Z,58
2017-09-05T01:54:58.314Z,58
2017-09-05T01:56:06.496Z,58
2017-09-05T01:57:14.585Z,58
2017-09-05T01:58:22.672Z,58
2017-09-05T01:59:30.760Z,58
2017-09-05T02:00:38.849Z,58
2017-09-05T02:01:47.084Z,58
2017-09-05T02:02:55.172Z,58
2017-09-05T02:04:03.260Z,58
2017-09-05T02:05:11.345Z,58
2017-09-05T02:06:19.432Z,58
2017-09-05T02:07:27.525Z,58
2017-09-05T02:08:35.611Z,58
2017-09-05T02:09:43.700Z,58
2017-09-05T02:10:51.792Z,58
2017-09-05T02:11:59.896Z,59
2017-09-05T02:13:07.982Z,59
2017-09-05T02:14:16.073Z,59
2017-09-05T02:15:24.162Z,59
2017-09-05T02:16:32.246Z,59
2017-09-05T02:17:40.335Z,58
2017-09-05T02:18:48.453Z,59
2017-09-05T02:19:56.542Z,58
2017-09-05T02:21:04.629Z,59
2017-09-05T02:22:12.715Z,59
2017-09-05T02:23:20.804Z,59
2017-09-05T02:24:28.893Z,59
2017-09-05T02:25:36.980Z,59
2017-09-05T02:26:45.066Z,58
2017-09-05T02:27:53.156Z,58
2017-09-05T02:29:01.338Z,58
2017-09-05T02:30:09.434Z,59
2017-09-05T02:31:17.515Z,58
2017-09-05T02:32:25.602Z,59
2017-09-05T02:33:33.690Z,59
2017-09-05T02:34:41.781Z,58
2017-09-05T02:35:49.869Z,59
2017-09-05T02:36:57.956Z,58
2017-09-05T02:38:06.041Z,58
2017-09-05T02:39:14.129Z,58
2017-09-05T02:40:22.217Z,59
2017-09-05T02:41:30.305Z,58
2017-09-05T02:42:38.392Z,59
2017-09-05T02:43:46.481Z,58
2017-09-05T02:44:54.576Z,58
2017-09-05T02:46:02.670Z,58
2017-09-05T02:47:10.757Z,58
2017-09-05T02:48:18.844Z,59
2017-09-05T02:49:26.929Z,58
2017-09-05T02:50:35.017Z,59
2017-09-05T02:51:43.107Z,58
2017-09-05T02:52:51.200Z,58
2017-09-05T02:53:59.293Z,58
2017-09-05T02:55:07.383Z,58
2017-09-05T02:56:15.473Z,59
2017-09-05T02:57:23.563Z,58
2017-09-05T02:58:31.649Z,59
2017-09-05T02:59:39.738Z,58
2017-09-05T03:00:47.825Z,58
2017-09-05T03:01:55.915Z,59
2017-09-05T03:03:04.003Z,59
2017-09-05T03:04:12.087Z,59
2017-09-05T03:05:20.177Z,59
2017-09-05T03:06:28.266Z,59
2017-09-05T03:07:36.352Z,59
2017-09-05T03:08:44.441Z,59
2017-09-05T03:09:52.542Z,59
2017-09-05T03:11:00.615Z,59
2017-09-05T03:12:08.703Z,59
2017-09-05T03:13:16.789Z,59
2017-09-05T03:14:24.882Z,58
2017-09-05T03:15:32.970Z,59
2017-09-05T03:16:41.058Z,59
2017-09-05T03:17:49.147Z,59
2017-09-05T03:18:57.234Z,59
2017-09-05T03:20:05.327Z,59
2017-09-05T03:21:13.413Z,59
2017-09-05T03:22:21.498Z,58
2017-09-05T03:23:29.587Z,58
2017-09-05T03:24:37.672Z,59
2017-09-05T03:25:45.760Z,59
2017-09-05T03:26:53.847Z,58
2017-09-05T03:28:01.935Z,58
2017-09-05T03:29:10.024Z,58
2017-09-05T03:30:18.113Z,59
2017-09-05T03:31:26.201Z,59
2017-09-05T03:32:34.285Z,59
2017-09-05T03:33:42.376Z,58
2017-09-05T03:34:50.459Z,58
2017-09-05T03:35:58.550Z,59
2017-09-05T03:37:06.637Z,59
2017-09-05T03:38:14.725Z,59
2017-09-05T03:39:22.814Z,58
2017-09-05T03:40:30.900Z,58
2017-09-05T03:41:38.991Z,58
2017-09-05T03:42:47.074Z,58
2017-09-05T03:43:55.165Z,59
2017-09-05T03:45:03.251Z,58
2017-09-05T03:46:11.339Z,58
2017-09-05T03:47:19.427Z,59
2017-09-05T03:48:27.516Z,58
2017-09-05T03:49:35.614Z,59
2017-09-05T03:50:43.698Z,58
2017-09-05T03:51:51.786Z,59
2017-09-05T03:52:59.873Z,59
2017-09-05T03:54:07.968Z,59
2017-09-05T03:55:16.068Z,58
2017-09-05T03:56:24.138Z,59
2017-09-05T03:57:32.225Z,58
2017-09-05T03:58:40.313Z,59
2017-09-05T03:59:48.399Z,58
2017-09-05T04:00:56.485Z,59
2017-09-05T04:02:04.575Z,58
2017-09-05T04:03:12.663Z,58
2017-09-05T04:04:20.751Z,58
2017-09-05T04:05:28.843Z,58
2017-09-05T04:06:36.926Z,58
2017-09-05T04:07:45.016Z,58
2017-09-05T04:08:53.101Z,59
2017-09-05T04:10:01.325Z,59
2017-09-05T04:11:09.277Z,58
2017-09-05T04:12:17.409Z,59
2017-09-05T04:13:25.451Z,58
2017-09-05T04:14:33.540Z,59
2017-09-05T04:15:41.626Z,58
2017-09-05T04:16:49.722Z,59
2017-09-05T04:17:57.807Z,59
2017-09-05T04:19:05.895Z,59
2017-09-05T04:20:13.982Z,59
2017-09-05T04:21:22.076Z,59
2017-09-05T04:22:30.175Z,59
2017-09-05T04:23:38.263Z,58
2017-09-05T04:24:46.347Z,59
2017-09-05T04:25:54.437Z,59
2017-09-05T04:27:02.523Z,58
2017-09-05T04:28:10.612Z,58
2017-09-05T04:29:18.697Z,58
2017-09-05T04:30:26.787Z,58.72
2017-09-05T04:31:34.873Z,59
2017-09-05T04:32:42.961Z,59
2017-09-05T04:33:51.048Z,59
2017-09-05T04:34:59.133Z,59
2017-09-05T04:36:07.220Z,59
2017-09-05T04:37:15.314Z,59
2017-09-05T04:38:23.400Z,59
2017-09-05T04:39:31.487Z,59
2017-09-05T04:40:39.578Z,59
2017-09-05T04:41:47.662Z,59
2017-09-05T04:42:55.747Z,59
2017-09-05T04:44:03.834Z,59
2017-09-05T04:45:11.920Z,59
2017-09-05T04:46:20.008Z,59
2017-09-05T04:47:28.097Z,59
2017-09-05T04:48:36.192Z,59
2017-09-05T04:49:44.280Z,59
2017-09-05T04:50:52.366Z,59
2017-09-05T04:52:00.474Z,59
2017-09-05T04:53:08.597Z,59
2017-09-05T04:54:16.652Z,59
2017-09-05T04:55:24.743Z,59
2017-09-05T04:56:32.852Z,59
2017-09-05T04:57:40.921Z,59
2017-09-05T04:58:49.010Z,59
2017-09-05T04:59:57.098Z,59
2017-09-05T05:01:05.186Z,59
2017-09-05T05:02:13.272Z,59
2017-09-05T05:03:21.362Z,59
2017-09-05T05:04:29.448Z,59
2017-09-05T05:05:37.533Z,59
2017-09-05T05:06:45.619Z,59
2017-09-05T05:07:53.709Z,59
2017-09-05T05:09:01.798Z,59
2017-09-05T05:10:09.882Z,59
2017-09-05T05:11:17.971Z,59
2017-09-05T05:12:26.059Z,59
2017-09-05T05:13:34.146Z,60
2017-09-05T05:14:42.232Z,60
2017-09-05T05:15:50.331Z,60
2017-09-05T05:16:58.416Z,60
2017-09-05T05:18:06.691Z,60
2017-09-05T05:19:14.592Z,60
2017-09-05T05:20:22.679Z,60
2017-09-05T05:21:30.815Z,60
2017-09-05T05:22:38.853Z,60
2017-09-05T05:23:46.942Z,60
2017-09-05T05:24:55.029Z,60
2017-09-05T05:26:03.115Z,60
2017-09-05T05:27:11.203Z,60
2017-09-05T05:28:19.288Z,60
2017-09-05T05:29:27.377Z,60
2017-09-05T05:30:35.465Z,60
2017-09-05T05:31:43.552Z,60
2017-09-05T05:32:51.647Z,60
2017-09-05T05:33:59.745Z,60
2017-09-05T05:35:07.831Z,60
2017-09-05T05:36:15.917Z,60
2017-09-05T05:37:24.004Z,60
2017-09-05T05:38:32.092Z,60
2017-09-05T05:39:40.224Z,60
2017-09-05T05:40:48.267Z,60
2017-09-05T05:41:56.354Z,60
2017-09-05T05:43:04.441Z,60
2017-09-05T05:44:12.530Z,60
2017-09-05T05:45:20.620Z,60
2017-09-05T05:46:28.704Z,59
2017-09-05T05:47:36.791Z,59
2017-09-05T05:48:44.882Z,59
2017-09-05T05:49:52.967Z,59
2017-09-05T05:51:01.053Z,59
2017-09-05T05:52:09.139Z,59
2017-09-05T05:53:17.234Z,59
2017-09-05T05:54:25.313Z,60
2017-09-05T05:55:33.409Z,59
2017-09-05T05:56:41.527Z,59
2017-09-05T05:57:49.618Z,59
2017-09-05T05:58:57.703Z,59
2017-09-05T06:00:05.821Z,59
2017-09-05T06:01:13.894Z,59
2017-09-05T06:02:21.998Z,59
2017-09-05T06:03:30.065Z,59
2017-09-05T06:04:38.152Z,59
2017-09-05T06:05:46.241Z,59
2017-09-05T06:06:54.329Z,59
2017-09-05T06:08:02.414Z,59
2017-09-05T06:09:10.501Z,59
2017-09-05T06:10:18.586Z,59
2017-09-05T06:11:26.677Z,59
2017-09-05T06:12:34.762Z,59
2017-09-05T06:13:42.849Z,59
2017-09-05T06:14:50.936Z,59
2017-09-05T06:15:59.031Z,59
2017-09-05T06:17:07.120Z,59
2017-09-05T06:18:15.208Z,59
2017-09-05T06:19:23.296Z,59
2017-09-05T06:20:31.384Z,59
2017-09-05T06:21:39.467Z,59
2017-09-05T06:22:47.556Z,59
2017-09-05T06:23:55.642Z,59
2017-09-05T06:25:03.730Z,59
2017-09-05T06:26:11.817Z,59
2017-09-05T06:27:19.904Z,59
2017-09-05T06:28:27.990Z,59
2017-09-05T06:29:36.078Z,59
2017-09-05T06:30:44.163Z,59
2017-09-05T06:31:52.258Z,60
2017-09-05T06:33:00.338Z,59
2017-09-05T06:34:08.425Z,59
2017-09-05T06:35:16.515Z,59
2017-09-05T06:36:24.600Z,59
2017-09-05T06:37:32.689Z,59
2017-09-05T06:38:40.776Z,59
2017-09-05T06:39:48.861Z,59
2017-09-05T06:40:56.949Z,59
2017-09-05T06:42:05.035Z,59
2017-09-05T06:43:13.194Z,59
2017-09-05T06:44:21.211Z,59
2017-09-05T06:45:29.295Z,60
2017-09-05T06:46:37.384Z,60
2017-09-05T06:47:45.470Z,59
2017-09-05T06:48:53.556Z,60
2017-09-05T06:50:01.716Z,59
2017-09-05T06:51:09.805Z,59
2017-09-05T06:52:17.891Z,59
2017-09-05T06:53:25.981Z,59
2017-09-05T06:54:34.065Z,60
2017-09-05T06:55:42.152Z,59
2017-09-05T06:56:50.242Z,59
2017-09-05T06:57:58.327Z,59
2017-09-05T06:59:06.413Z,59
2017-09-05T07:00:14.504Z,59
2017-09-05T07:01:22.603Z,59
2017-09-05T07:02:30.690Z,59
2017-09-05T07:03:38.788Z,59
2017-09-05T07:04:46.868Z,59
2017-09-05T07:05:54.953Z,59
2017-09-05T07:07:03.086Z,59
2017-09-05T07:08:11.134Z,60
2017-09-05T07:09:19.219Z,59
2017-09-05T07:10:27.309Z,59
2017-09-05T07:11:35.396Z,59
2017-09-05T07:12:43.491Z,59
2017-09-05T07:13:51.579Z,59
2017-09-05T07:14:59.666Z,59
2017-09-05T07:16:07.762Z,59
2017-09-05T07:17:15.850Z,59
2017-09-05T07:18:23.948Z,60
2017-09-05T07:19:32.033Z,60
2017-09-05T07:20:40.118Z,59
2017-09-05T07:21:48.206Z,59
2017-09-05T07:22:56.294Z,59
2017-09-05T07:24:04.391Z,59
2017-09-05T07:25:12.477Z,59
2017-09-05T07:26:20.566Z,59
2017-09-05T07:27:28.653Z,59
2017-09-05T07:28:36.740Z,59
2017-09-05T07:29:44.827Z,59
2017-09-05T07:30:52.913Z,59
2017-09-05T07:32:01.001Z,59
2017-09-05T07:33:09.088Z,59
2017-09-05T07:34:17.175Z,60
2017-09-05T07:35:25.272Z,59
2017-09-05T07:36:33.364Z,59
2017-09-05T07:37:41.454Z,59
2017-09-05T07:38:49.542Z,60
2017-09-05T07:39:57.627Z,60
2017-09-05T07:41:05.722Z,60
2017-09-05T07:42:13.803Z,60
2017-09-05T07:43:21.893Z,60
2017-09-05T07:44:29.976Z,60
2017-09-05T07:45:38.067Z,60
2017-09-05T07:46:46.151Z,60
2017-09-05T07:47:54.236Z,60
2017-09-05T07:49:02.323Z,60
2017-09-05T07:50:10.409Z,60
2017-09-05T07:51:18.498Z,60
2017-09-05T07:52:26.589Z,60
2017-09-05T07:53:34.671Z,60
2017-09-05T07:54:42.757Z,60
2017-09-05T07:55:50.847Z,60
2017-09-05T07:56:58.933Z,60
2017-09-05T07:58:07.024Z,60
2017-09-05T07:59:15.106Z,60
2017-09-05T08:00:23.202Z,60
2017-09-05T08:01:31.288Z,60
2017-09-05T08:02:39.382Z,60
2017-09-05T08:03:47.476Z,60
2017-09-05T08:04:55.565Z,60
2017-09-05T08:06:03.654Z,60
2017-09-05T08:07:11.742Z,60
2017-09-05T08:08:19.826Z,60
2017-09-05T08:09:27.913Z,60
2017-09-05T08:10:36.001Z,60
2017-09-05T08:11:44.088Z,60
2017-09-05T08:12:52.176Z,60
2017-09-05T08:14:00.262Z,60
2017-09-05T08:15:08.350Z,60
2017-09-05T08:16:16.438Z,60
2017-09-05T08:17:24.524Z,60
2017-09-05T08:18:32.611Z,60
2017-09-05T08:19:40.697Z,60
2017-09-05T08:20:48.784Z,60
2017-09-05T08:21:56.871Z,60
2017-09-05T08:23:04.958Z,60
2017-09-05T08:24:13.047Z,60
2017-09-05T08:25:21.157Z,60
2017-09-05T08:26:29.221Z,60
2017-09-05T08:27:37.308Z,60
2017-09-05T08:28:45.414Z,60
2017-09-05T08:29:53.483Z,60
2017-09-05T08:31:01.569Z,61
2017-09-05T08:32:09.658Z,60
2017-09-05T08:33:17.744Z,61
2017-09-05T08:34:25.834Z,60
2017-09-05T08:35:33.921Z,60
2017-09-05T08:36:42.016Z,60
2017-09-05T08:37:50.100Z,61
2017-09-05T08:38:58.181Z,60
2017-09-05T08:40:06.271Z,60
2017-09-05T08:41:14.357Z,60
2017-09-05T08:42:22.460Z,60
2017-09-05T08:43:30.541Z,60
2017-09-05T08:44:38.627Z,60
2017-09-05T08:45:46.715Z,60
2017-09-05T08:46:54.803Z,61
2017-09-05T08:48:02.889Z,61
2017-09-05T08:49:10.978Z,60
2017-09-05T08:50:19.065Z,60
2017-09-05T08:51:27.153Z,60
2017-09-05T08:52:35.242Z,60
2017-09-05T08:53:43.327Z,61
2017-09-05T08:54:51.416Z,61
2017-09-05T08:55:59.513Z,61
2017-09-05T08:57:07.589Z,61
2017-09-05T08:58:15.675Z,61
2017-09-05T08:59:23.764Z,61
2017-09-05T09:00:31.853Z,60
2017-09-05T09:01:39.945Z,60
2017-09-05T09:02:48.029Z,61
2017-09-05T09:03:56.115Z,61
2017-09-05T09:05:04.204Z,61
2017-09-05T09:06:12.291Z,61
2017-09-05T09:07:20.377Z,61
2017-09-05T09:08:28.464Z,61
2017-09-05T09:09:36.554Z,61
2017-09-05T09:10:44.648Z,61
2017-09-05T09:11:52.730Z,60
2017-09-05T09:13:00.824Z,61
2017-09-05T09:14:08.913Z,60
2017-09-05T09:15:16.999Z,60
2017-09-05T09:16:25.085Z,61
2017-09-05T09:17:33.182Z,61
2017-09-05T09:18:41.290Z,61
2017-09-05T09:19:49.365Z,61
2017-09-05T09:20:57.445Z,60
2017-09-05T09:22:05.542Z,60
2017-09-05T09:23:13.642Z,60
2017-09-05T09:24:21.731Z,60
2017-09-05T09:25:29.817Z,60
2017-09-05T09:26:37.916Z,60
2017-09-05T09:27:46.013Z,60
2017-09-05T09:28:54.104Z,60
2017-09-05T09:30:02.188Z,60
2017-09-05T09:31:10.276Z,61
2017-09-05T09:32:18.361Z,61
2017-09-05T09:33:26.448Z,60
2017-09-05T09:34:34.536Z,60
2017-09-05T09:35:42.643Z,61
2017-09-05T09:36:50.713Z,61
2017-09-05T09:37:58.800Z,60
2017-09-05T09:39:06.891Z,60
2017-09-05T09:40:14.977Z,60
2017-09-05T09:41:23.072Z,60
2017-09-05T09:42:31.160Z,60
2017-09-05T09:43:39.248Z,61
2017-09-05T09:44:47.335Z,60
2017-09-05T09:45:55.422Z,60
2017-09-05T09:47:03.515Z,60
2017-09-05T09:48:11.599Z,60
2017-09-05T09:49:19.690Z,60
2017-09-05T09:50:27.786Z,61
2017-09-05T09:51:35.874Z,60
2017-09-05T09:52:43.961Z,61
2017-09-05T09:53:52.048Z,61
2017-09-05T09:55:00.140Z,61
2017-09-05T09:56:08.225Z,60
2017-09-05T09:57:16.308Z,61
2017-09-05T09:58:24.397Z,60
2017-09-05T09:59:32.484Z,61
2017-09-05T10:00:40.573Z,61
2017-09-05T10:01:48.659Z,61
2017-09-05T10:02:56.748Z,61
2017-09-05T10:04:04.836Z,61
2017-09-05T10:05:12.942Z,61
2017-09-05T10:06:21.012Z,61
2017-09-05T10:07:29.098Z,61
2017-09-05T10:08:37.185Z,61
2017-09-05T10:09:45.272Z,61
2017-09-05T10:10:53.362Z,60
2017-09-05T10:12:01.449Z,61
2017-09-05T10:13:09.536Z,61
2017-09-05T10:14:17.647Z,61
2017-09-05T10:15:25.733Z,61
2017-09-05T10:16:33.853Z,61
2017-09-05T10:17:41.910Z,61
2017-09-05T10:18:50.007Z,61
2017-09-05T10:19:58.087Z,60
2017-09-05T10:21:06.175Z,61
2017-09-05T10:22:14.270Z,61
2017-09-05T10:23:22.358Z,61
2017-09-05T10:24:30.447Z,61
2017-09-05T10:25:38.540Z,61
2017-09-05T10:26:46.622Z,61
2017-09-05T10:27:54.709Z,61
2017-09-05T10:29:02.795Z,61
2017-09-05T10:30:10.884Z,61
2017-09-05T10:31:18.972Z,61
2017-09-05T10:32:27.058Z,61
2017-09-05T10:33:35.147Z,61
2017-09-05T10:34:43.235Z,61
2017-09-05T10:35:51.329Z,61
2017-09-05T10:36:59.413Z,61
2017-09-05T10:38:07.497Z,61
2017-09-05T10:39:15.583Z,61
2017-09-05T10:40:23.671Z,61
2017-09-05T10:41:31.760Z,61
2017-09-05T10:42:39.846Z,61
2017-09-05T10:43:47.934Z,61
2017-09-05T10:44:56.022Z,61
2017-09-05T10:46:04.113Z,61
2017-09-05T10:47:12.198Z,61
2017-09-05T10:48:20.283Z,61
2017-09-05T10:49:28.371Z,61
2017-09-05T10:50:36.460Z,61
2017-09-05T10:51:44.547Z,61
2017-09-05T10:52:52.641Z,61
2017-09-05T10:54:00.722Z,61
2017-09-05T10:55:08.838Z,61
2017-09-05T10:56:16.928Z,61
2017-09-05T10:57:25.037Z,61
2017-09-05T10:58:33.104Z,61
2017-09-05T10:59:41.189Z,61
2017-09-05T11:00:49.277Z,61
2017-09-05T11:01:57.366Z,61
2017-09-05T11:03:05.457Z,61
2017-09-05T11:04:13.540Z,60
2017-09-05T11:05:21.649Z,61
2017-09-05T11:07:37.823Z,61
2017-09-05T11:08:45.933Z,61
2017-09-05T11:09:54.000Z,61
2017-09-05T11:11:02.086Z,61
2017-09-05T11:12:10.213Z,61
2017-09-05T11:13:18.264Z,61
2017-09-05T11:14:26.350Z,61
2017-09-05T11:15:34.438Z,61
2017-09-05T11:16:42.524Z,61
2017-09-05T11:17:50.611Z,61
2017-09-05T11:18:58.707Z,60
2017-09-05T11:20:06.840Z,61
2017-09-05T11:21:14.925Z,61
2017-09-05T11:22:23.011Z,61
2017-09-05T11:23:31.101Z,61
2017-09-05T11:24:39.190Z,61
2017-09-05T11:25:47.276Z,61
2017-09-05T11:26:55.363Z,61
2017-09-05T11:28:03.448Z,61
2017-09-05T11:29:11.540Z,61
2017-09-05T11:30:19.627Z,61
2017-09-05T11:31:27.714Z,61
2017-09-05T11:32:35.805Z,61
2017-09-05T11:33:43.895Z,61
2017-09-05T11:34:52.061Z,61
2017-09-05T11:36:00.102Z,61
2017-09-05T11:37:08.189Z,61
2017-09-05T11:38:16.281Z,61
2017-09-05T11:39:24.366Z,61
2017-09-05T11:40:32.456Z,61
2017-09-05T11:41:40.543Z,61
2017-09-05T11:42:48.633Z,61
2017-09-05T11:43:56.720Z,61
2017-09-05T11:45:04.811Z,61
2017-09-05T11:46:12.899Z,61
2017-09-05T11:47:21.007Z,61
2017-09-05T11:48:29.106Z,61
2017-09-05T11:49:37.187Z,61
2017-09-05T11:50:45.266Z,61
2017-09-05T11:51:53.356Z,61
2017-09-05T11:53:01.445Z,61
2017-09-05T11:54:09.532Z,61
2017-09-05T11:55:17.633Z,61
2017-09-05T11:56:25.718Z,61
2017-09-05T11:57:33.807Z,61
2017-09-05T11:58:41.893Z,61
2017-09-05T11:59:49.980Z,61
2017-09-05T12:00:58.068Z,61
2017-09-05T12:02:06.159Z,61
2017-09-05T12:03:14.248Z,61
2017-09-05T12:04:22.330Z,61
2017-09-05T12:05:30.420Z,61
2017-09-05T12:06:38.507Z,61
2017-09-05T12:07:46.595Z,61
2017-09-05T12:08:54.698Z,61
2017-09-05T12:10:02.768Z,61
2017-09-05T12:11:10.856Z,61
2017-09-05T12:12:18.947Z,61
2017-09-05T12:13:27.034Z,61
2017-09-05T12:14:35.122Z,61
2017-09-05T12:15:43.210Z,61
2017-09-05T12:16:51.299Z,61
2017-09-05T12:17:59.383Z,61
2017-09-05T12:19:07.473Z,61
2017-09-05T12:20:15.562Z,61
2017-09-05T12:21:23.647Z,61
2017-09-05T12:22:31.743Z,61
2017-09-05T12:23:39.827Z,61
2017-09-05T12:24:47.925Z,61
2017-09-05T12:25:56.010Z,61
2017-09-05T12:27:04.095Z,61
2017-09-05T12:28:12.188Z,61
2017-09-05T12:29:20.271Z,61
2017-09-05T12:30:28.362Z,61
2017-09-05T12:31:36.451Z,61
2017-09-05T12:32:44.538Z,61
2017-09-05T12:33:52.627Z,61
2017-09-05T12:35:00.721Z,61
2017-09-05T12:36:08.808Z,61
2017-09-05T12:37:16.896Z,61
2017-09-05T12:38:24.984Z,61
2017-09-05T12:39:33.073Z,61
2017-09-05T12:40:41.162Z,61
2017-09-05T12:41:49.251Z,61
2017-09-05T12:42:57.335Z,61
2017-09-05T12:44:05.426Z,61
2017-09-05T12:45:13.514Z,61
2017-09-05T12:46:21.613Z,61
2017-09-05T12:47:29.712Z,61
2017-09-05T12:48:38.009Z,60
2017-09-05T12:49:45.887Z,61
2017-09-05T12:50:53.974Z,61
2017-09-05T12:52:02.063Z,61
2017-09-05T12:53:10.154Z,61
2017-09-05T12:54:18.252Z,61
2017-09-05T12:55:26.343Z,61
2017-09-05T12:56:34.433Z,61
2017-09-05T12:57:42.523Z,61
2017-09-05T12:58:50.605Z,61
2017-09-05T12:59:58.696Z,61
2017-09-05T13:01:06.784Z,61
2017-09-05T13:02:14.902Z,61
2017-09-05T13:03:22.978Z,61
2017-09-05T13:04:31.067Z,61
2017-09-05T13:05:39.160Z,61
2017-09-05T13:06:47.287Z,61
2017-09-05T13:07:55.374Z,61
2017-09-05T13:09:03.461Z,61
2017-09-05T13:10:11.549Z,61
2017-09-05T13:11:19.645Z,61
2017-09-05T13:12:27.727Z,61
2017-09-05T13:13:35.813Z,61
2017-09-05T13:14:44.009Z,61
2017-09-05T13:15:52.002Z,61
2017-09-05T13:17:00.090Z,61
2017-09-05T13:18:08.209Z,61
2017-09-05T13:19:16.266Z,61
2017-09-05T13:20:24.353Z,61
2017-09-05T13:21:32.443Z,61
2017-09-05T13:22:40.582Z,60
2017-09-05T13:23:48.670Z,61
2017-09-05T13:24:56.756Z,60
2017-09-05T13:26:04.846Z,61
2017-09-05T13:27:12.931Z,61
2017-09-05T13:28:21.020Z,60
2017-09-05T13:29:29.108Z,61
2017-09-05T13:30:37.203Z,61
2017-09-05T13:31:45.285Z,61
2017-09-05T13:32:53.372Z,61
2017-09-05T13:34:01.461Z,61
2017-09-05T13:35:09.548Z,61
2017-09-05T13:36:17.636Z,61
2017-09-05T13:37:25.722Z,61
2017-09-05T13:38:33.810Z,61
2017-09-05T13:39:41.900Z,61
2017-09-05T13:40:49.993Z,61
2017-09-05T13:41:58.078Z,61
2017-09-05T13:43:06.163Z,61
2017-09-05T13:44:14.253Z,61
2017-09-05T13:45:22.373Z,61
2017-09-05T13:46:30.427Z,61
2017-09-05T13:47:38.517Z,61
2017-09-05T13:48:46.607Z,61
2017-09-05T13:49:54.688Z,61
2017-09-05T13:51:02.785Z,61
2017-09-05T13:52:10.871Z,61
2017-09-05T13:53:18.957Z,61
2017-09-05T13:54:27.044Z,61
2017-09-05T13:55:35.132Z,61
2017-09-05T13:56:43.220Z,61
2017-09-05T13:57:51.313Z,61
2017-09-05T13:58:59.397Z,61
2017-09-05T14:00:07.483Z,61
2017-09-05T14:01:15.574Z,61
2017-09-05T14:02:23.660Z,61
2017-09-05T14:03:31.761Z,61
2017-09-05T14:04:39.846Z,61
2017-09-05T14:05:47.938Z,61
2017-09-05T14:06:56.031Z,61
2017-09-05T14:08:04.122Z,61
2017-09-05T14:09:12.207Z,61
2017-09-05T14:10:20.293Z,61
2017-09-05T14:11:28.391Z,61
2017-09-05T14:12:36.479Z,61
2017-09-05T14:13:44.572Z,61
2017-09-05T14:14:52.665Z,62
2017-09-05T14:16:00.762Z,62
2017-09-05T14:17:08.834Z,62
2017-09-05T14:18:16.923Z,62
2017-09-05T14:19:25.011Z,62
2017-09-05T14:20:33.123Z,62
2017-09-05T14:21:41.213Z,62
2017-09-05T14:22:49.296Z,62
2017-09-05T14:23:57.384Z,62
2017-09-05T14:25:05.472Z,62
2017-09-05T14:26:13.566Z,62
2017-09-05T14:27:21.677Z,61
2017-09-05T14:28:29.764Z,62
2017-09-05T14:29:37.853Z,62
2017-09-05T14:30:45.940Z,62
2017-09-05T14:31:54.029Z,61
2017-09-05T14:33:02.117Z,62
2017-09-05T14:34:10.205Z,61
2017-09-05T14:35:18.291Z,62
2017-09-05T14:36:26.380Z,61
2017-09-05T14:37:34.472Z,62
2017-09-05T14:38:42.557Z,62
2017-09-05T14:39:50.643Z,61
2017-09-05T14:40:58.730Z,61
2017-09-05T14:42:06.821Z,61
2017-09-05T14:43:14.907Z,61
2017-09-05T14:44:23.000Z,62
2017-09-05T14:45:31.084Z,61
2017-09-05T14:46:39.171Z,61
2017-09-05T14:47:47.258Z,62
2017-09-05T14:48:55.348Z,61
2017-09-05T14:50:03.436Z,61
2017-09-05T14:51:11.523Z,61
2017-09-05T14:52:19.621Z,61
2017-09-05T14:53:27.728Z,61
2017-09-05T14:54:35.817Z,61
2017-09-05T14:55:43.906Z,61
2017-09-05T14:56:51.990Z,62
2017-09-05T14:58:00.090Z,62
2017-09-05T14:59:08.193Z,62
2017-09-05T15:00:16.269Z,62
2017-09-05T15:01:24.359Z,62
2017-09-05T15:02:32.449Z,62
2017-09-05T15:03:40.539Z,62
2017-09-05T15:04:48.624Z,62
2017-09-05T15:05:56.708Z,62
2017-09-05T15:07:04.797Z,61
2017-09-05T15:08:12.887Z,61
2017-09-05T15:09:20.970Z,61
2017-09-05T15:10:29.058Z,61
2017-09-05T15:11:37.147Z,61
2017-09-05T15:12:45.233Z,61
2017-09-05T15:13:53.341Z,61
2017-09-05T15:15:01.402Z,61
2017-09-05T15:16:09.497Z,61
2017-09-05T15:17:17.584Z,61
2017-09-05T15:18:25.675Z,61
2017-09-05T15:19:33.761Z,61
2017-09-05T15:20:41.851Z,61
2017-09-05T15:21:49.938Z,61
2017-09-05T15:22:58.025Z,61
2017-09-05T15:24:06.186Z,61
2017-09-05T15:25:14.201Z,62
2017-09-05T15:26:22.289Z,62
2017-09-05T15:27:30.377Z,61
2017-09-05T15:28:38.464Z,62
2017-09-05T15:29:46.552Z,62
2017-09-05T15:30:54.645Z,62
2017-09-05T15:32:02.728Z,62
2017-09-05T15:33:10.821Z,62
2017-09-05T15:34:18.920Z,62
2017-09-05T15:35:27.010Z,62
2017-09-05T15:36:35.097Z,62
2017-09-05T15:37:43.191Z,62
2017-09-05T15:38:51.272Z,62
2017-09-05T15:39:59.361Z,62
2017-09-05T15:41:07.448Z,62
2017-09-05T15:42:15.536Z,62
2017-09-05T15:43:23.623Z,62
2017-09-05T15:44:31.711Z,64
2017-09-05T15:45:39.807Z,63
2017-09-05T15:46:47.889Z,63
2017-09-05T15:47:55.978Z,63
2017-09-05T15:49:04.071Z,62
2017-09-05T15:50:12.172Z,62
2017-09-05T15:51:20.256Z,62
2017-09-05T15:52:28.403Z,62
2017-09-05T15:53:36.491Z,62
2017-09-05T15:54:44.580Z,62
2017-09-05T15:55:52.667Z,62
2017-09-05T15:57:00.757Z,62
2017-09-05T15:58:08.846Z,62
2017-09-05T15:59:16.951Z,62
2017-09-05T16:00:25.031Z,62
2017-09-05T16:01:33.134Z,62
2017-09-05T16:02:41.205Z,62
2017-09-05T16:03:49.294Z,62
2017-09-05T16:04:57.393Z,62
2017-09-05T16:06:05.471Z,63
2017-09-05T16:07:13.562Z,63
2017-09-05T16:08:21.650Z,63
2017-09-05T16:09:29.735Z,63
2017-09-05T16:10:37.831Z,63
2017-09-05T16:11:45.922Z,63